sensor_id;sensor_type;location;lat;lon;timestamp;temperature;humidity
42227;DHT22;27892;52.378;13.122;2023-06-05T00:01:38;16.40;43.60
42227;DHT22;27892;52.378;13.122;2023-06-05T00:04:04;16.30;44.20
42227;DHT22;27892;52.378;13.122;2023-06-05T00:06:30;16.30;43.90
42227;DHT22;27892;52.378;13.122;2023-06-05T00:08:57;16.30;44.10
42227;DHT22;27892;52.378;13.122;2023-06-05T00:11:23;16.20;44.00
42227;DHT22;27892;52.378;13.122;2023-06-05T00:13:49;16.20;44.10
42227;DHT22;27892;52.378;13.122;2023-06-05T00:16:16;16.10;44.20
42227;DHT22;27892;52.378;13.122;2023-06-05T00:18:42;16.10;44.40
42227;DHT22;27892;52.378;13.122;2023-06-05T00:21:09;16.00;44.50
42227;DHT22;27892;52.378;13.122;2023-06-05T00:23:35;16.00;44.60
42227;DHT22;27892;52.378;13.122;2023-06-05T00:26:01;16.00;44.60
42227;DHT22;27892;52.378;13.122;2023-06-05T00:28:26;16.00;44.80
42227;DHT22;27892;52.378;13.122;2023-06-05T00:30:53;15.90;44.90
42227;DHT22;27892;52.378;13.122;2023-06-05T00:33:19;15.80;45.10
42227;DHT22;27892;52.378;13.122;2023-06-05T00:35:45;15.80;45.30
42227;DHT22;27892;52.378;13.122;2023-06-05T00:38:10;15.80;45.50
42227;DHT22;27892;52.378;13.122;2023-06-05T00:40:36;15.80;45.80
42227;DHT22;27892;52.378;13.122;2023-06-05T00:43:02;15.80;45.80
42227;DHT22;27892;52.378;13.122;2023-06-05T00:45:28;15.70;45.70
42227;DHT22;27892;52.378;13.122;2023-06-05T00:47:54;15.70;45.80
42227;DHT22;27892;52.378;13.122;2023-06-05T00:50:20;15.60;45.90
42227;DHT22;27892;52.378;13.122;2023-06-05T00:52:50;15.60;46.20
42227;DHT22;27892;52.378;13.122;2023-06-05T00:55:16;15.60;46.20
42227;DHT22;27892;52.378;13.122;2023-06-05T00:57:43;15.60;46.20
42227;DHT22;27892;52.378;13.122;2023-06-05T01:00:10;15.60;46.10
42227;DHT22;27892;52.378;13.122;2023-06-05T01:02:38;15.50;46.10
42227;DHT22;27892;52.378;13.122;2023-06-05T01:05:05;15.50;46.10
42227;DHT22;27892;52.378;13.122;2023-06-05T01:07:35;15.50;45.90
42227;DHT22;27892;52.378;13.122;2023-06-05T01:10:05;15.50;46.60
42227;DHT22;27892;52.378;13.122;2023-06-05T01:12:50;15.40;46.10
42227;DHT22;27892;52.378;13.122;2023-06-05T01:15:19;15.40;46.40
42227;DHT22;27892;52.378;13.122;2023-06-05T01:17:58;15.30;46.30
42227;DHT22;27892;52.378;13.122;2023-06-05T01:20:35;15.30;46.40
42227;DHT22;27892;52.378;13.122;2023-06-05T01:23:10;15.30;46.50
42227;DHT22;27892;52.378;13.122;2023-06-05T01:25:36;15.30;46.50
42227;DHT22;27892;52.378;13.122;2023-06-05T01:30:40;15.30;46.80
42227;DHT22;27892;52.378;13.122;2023-06-05T01:33:15;15.20;46.70
42227;DHT22;27892;52.378;13.122;2023-06-05T01:35:43;15.10;47.00
42227;DHT22;27892;52.378;13.122;2023-06-05T01:38:11;15.10;47.00
42227;DHT22;27892;52.378;13.122;2023-06-05T01:40:37;15.10;47.10
42227;DHT22;27892;52.378;13.122;2023-06-05T01:43:04;15.00;47.00
42227;DHT22;27892;52.378;13.122;2023-06-05T01:45:33;15.00;47.20
42227;DHT22;27892;52.378;13.122;2023-06-05T01:48:02;15.00;47.50
42227;DHT22;27892;52.378;13.122;2023-06-05T01:50:33;15.00;48.30
42227;DHT22;27892;52.378;13.122;2023-06-05T01:52:59;15.00;47.90
42227;DHT22;27892;52.378;13.122;2023-06-05T01:55:26;14.90;48.10
42227;DHT22;27892;52.378;13.122;2023-06-05T01:57:52;14.90;48.10
42227;DHT22;27892;52.378;13.122;2023-06-05T02:00:18;14.90;48.20
42227;DHT22;27892;52.378;13.122;2023-06-05T02:02:44;14.90;48.40
42227;DHT22;27892;52.378;13.122;2023-06-05T02:05:14;14.80;48.40
42227;DHT22;27892;52.378;13.122;2023-06-05T02:07:44;14.80;48.70
42227;DHT22;27892;52.378;13.122;2023-06-05T02:10:14;14.80;49.40
42227;DHT22;27892;52.378;13.122;2023-06-05T02:12:40;14.80;48.90
42227;DHT22;27892;52.378;13.122;2023-06-05T02:15:08;14.70;48.90
42227;DHT22;27892;52.378;13.122;2023-06-05T02:17:39;14.70;49.00
42227;DHT22;27892;52.378;13.122;2023-06-05T02:20:05;14.60;49.20
42227;DHT22;27892;52.378;13.122;2023-06-05T02:22:30;14.60;49.10
42227;DHT22;27892;52.378;13.122;2023-06-05T02:24:56;14.60;49.20
42227;DHT22;27892;52.378;13.122;2023-06-05T02:27:22;14.50;49.20
42227;DHT22;27892;52.378;13.122;2023-06-05T02:29:50;14.50;49.20
42227;DHT22;27892;52.378;13.122;2023-06-05T02:32:16;14.50;49.40
42227;DHT22;27892;52.378;13.122;2023-06-05T02:34:41;14.50;49.30
42227;DHT22;27892;52.378;13.122;2023-06-05T02:37:28;14.50;49.30
42227;DHT22;27892;52.378;13.122;2023-06-05T02:39:54;14.50;49.30
42227;DHT22;27892;52.378;13.122;2023-06-05T02:42:19;14.40;49.40
42227;DHT22;27892;52.378;13.122;2023-06-05T02:44:46;14.40;49.60
42227;DHT22;27892;52.378;13.122;2023-06-05T02:47:12;14.40;49.50
42227;DHT22;27892;52.378;13.122;2023-06-05T02:49:38;14.40;49.50
42227;DHT22;27892;52.378;13.122;2023-06-05T02:52:04;14.40;49.50
42227;DHT22;27892;52.378;13.122;2023-06-05T02:54:30;14.40;49.50
42227;DHT22;27892;52.378;13.122;2023-06-05T02:56:56;14.40;49.50
42227;DHT22;27892;52.378;13.122;2023-06-05T02:59:26;14.30;49.50
42227;DHT22;27892;52.378;13.122;2023-06-05T03:01:53;14.30;49.80
42227;DHT22;27892;52.378;13.122;2023-06-05T03:04:18;14.30;49.80
42227;DHT22;27892;52.378;13.122;2023-06-05T03:06:52;14.30;49.80
42227;DHT22;27892;52.378;13.122;2023-06-05T03:09:18;14.30;49.90
42227;DHT22;27892;52.378;13.122;2023-06-05T03:11:44;14.30;50.00
42227;DHT22;27892;52.378;13.122;2023-06-05T03:14:10;14.30;50.00
42227;DHT22;27892;52.378;13.122;2023-06-05T03:16:36;14.30;49.90
42227;DHT22;27892;52.378;13.122;2023-06-05T03:19:09;14.30;49.90
42227;DHT22;27892;52.378;13.122;2023-06-05T03:21:36;14.30;49.90
42227;DHT22;27892;52.378;13.122;2023-06-05T03:24:04;14.30;50.00
42227;DHT22;27892;52.378;13.122;2023-06-05T03:26:31;14.30;50.10
42227;DHT22;27892;52.378;13.122;2023-06-05T03:28:57;14.30;50.10
42227;DHT22;27892;52.378;13.122;2023-06-05T03:31:23;14.40;50.00
42227;DHT22;27892;52.378;13.122;2023-06-05T03:33:49;14.40;50.10
42227;DHT22;27892;52.378;13.122;2023-06-05T03:36:15;14.40;50.10
42227;DHT22;27892;52.378;13.122;2023-06-05T03:38:43;14.40;50.20
42227;DHT22;27892;52.378;13.122;2023-06-05T03:41:09;14.40;50.50
42227;DHT22;27892;52.378;13.122;2023-06-05T03:43:34;14.30;50.60
42227;DHT22;27892;52.378;13.122;2023-06-05T03:46:00;14.40;50.80
42227;DHT22;27892;52.378;13.122;2023-06-05T03:48:26;14.40;51.00
42227;DHT22;27892;52.378;13.122;2023-06-05T03:50:52;14.50;51.10
42227;DHT22;27892;52.378;13.122;2023-06-05T03:53:19;14.50;51.70
42227;DHT22;27892;52.378;13.122;2023-06-05T03:55:45;14.60;51.80
42227;DHT22;27892;52.378;13.122;2023-06-05T03:58:13;14.70;51.10
42227;DHT22;27892;52.378;13.122;2023-06-05T04:00:43;14.70;51.10
42227;DHT22;27892;52.378;13.122;2023-06-05T04:03:10;14.80;51.20
42227;DHT22;27892;52.378;13.122;2023-06-05T04:05:39;14.80;51.30
42227;DHT22;27892;52.378;13.122;2023-06-05T04:08:05;14.90;51.50
42227;DHT22;27892;52.378;13.122;2023-06-05T04:10:31;15.00;51.60
42227;DHT22;27892;52.378;13.122;2023-06-05T04:12:57;15.00;51.50
42227;DHT22;27892;52.378;13.122;2023-06-05T04:15:24;15.10;51.50
42227;DHT22;27892;52.378;13.122;2023-06-05T04:17:50;15.20;51.40
42227;DHT22;27892;52.378;13.122;2023-06-05T04:20:15;15.20;51.60
42227;DHT22;27892;52.378;13.122;2023-06-05T04:22:42;15.30;51.50
42227;DHT22;27892;52.378;13.122;2023-06-05T04:25:08;15.40;52.00
42227;DHT22;27892;52.378;13.122;2023-06-05T04:27:37;15.50;52.00
42227;DHT22;27892;52.378;13.122;2023-06-05T04:30:05;15.70;52.00
42227;DHT22;27892;52.378;13.122;2023-06-05T04:32:31;15.80;52.10
42227;DHT22;27892;52.378;13.122;2023-06-05T04:35:00;15.90;52.00
42227;DHT22;27892;52.378;13.122;2023-06-05T04:37:26;16.00;52.20
42227;DHT22;27892;52.378;13.122;2023-06-05T04:39:51;16.10;51.90
42227;DHT22;27892;52.378;13.122;2023-06-05T04:42:17;16.20;51.90
42227;DHT22;27892;52.378;13.122;2023-06-05T04:44:43;16.40;51.90
42227;DHT22;27892;52.378;13.122;2023-06-05T04:47:09;16.50;51.70
42227;DHT22;27892;52.378;13.122;2023-06-05T04:49:35;16.60;51.50
42227;DHT22;27892;52.378;13.122;2023-06-05T04:52:00;16.70;50.00
42227;DHT22;27892;52.378;13.122;2023-06-05T04:54:26;16.90;49.10
42227;DHT22;27892;52.378;13.122;2023-06-05T04:56:52;17.00;47.40
42227;DHT22;27892;52.378;13.122;2023-06-05T04:59:18;17.10;46.30
42227;DHT22;27892;52.378;13.122;2023-06-05T05:01:44;17.30;46.20
42227;DHT22;27892;52.378;13.122;2023-06-05T05:04:10;17.50;44.90
42227;DHT22;27892;52.378;13.122;2023-06-05T05:06:37;17.60;45.00
42227;DHT22;27892;52.378;13.122;2023-06-05T05:09:04;17.80;44.70
42227;DHT22;27892;52.378;13.122;2023-06-05T05:11:30;18.00;45.20
42227;DHT22;27892;52.378;13.122;2023-06-05T05:13:55;18.20;44.60
42227;DHT22;27892;52.378;13.122;2023-06-05T05:16:21;18.30;44.60
42227;DHT22;27892;52.378;13.122;2023-06-05T05:18:48;18.40;43.10
42227;DHT22;27892;52.378;13.122;2023-06-05T05:21:13;18.40;42.40
42227;DHT22;27892;52.378;13.122;2023-06-05T05:23:39;18.50;42.20
42227;DHT22;27892;52.378;13.122;2023-06-05T05:26:05;18.60;41.90
42227;DHT22;27892;52.378;13.122;2023-06-05T05:28:30;18.80;42.30
42227;DHT22;27892;52.378;13.122;2023-06-05T05:30:56;18.90;41.90
42227;DHT22;27892;52.378;13.122;2023-06-05T05:33:23;19.10;41.30
42227;DHT22;27892;52.378;13.122;2023-06-05T05:35:48;19.20;41.20
42227;DHT22;27892;52.378;13.122;2023-06-05T05:38:14;19.40;41.30
42227;DHT22;27892;52.378;13.122;2023-06-05T05:40:41;19.50;40.70
42227;DHT22;27892;52.378;13.122;2023-06-05T05:43:06;19.70;40.60
42227;DHT22;27892;52.378;13.122;2023-06-05T05:45:32;19.70;39.60
42227;DHT22;27892;52.378;13.122;2023-06-05T05:47:57;19.80;39.70
42227;DHT22;27892;52.378;13.122;2023-06-05T05:50:23;19.90;39.50
42227;DHT22;27892;52.378;13.122;2023-06-05T05:52:49;20.10;39.20
42227;DHT22;27892;52.378;13.122;2023-06-05T05:55:17;20.40;39.60
42227;DHT22;27892;52.378;13.122;2023-06-05T05:57:42;20.90;39.10
42227;DHT22;27892;52.378;13.122;2023-06-05T06:00:08;21.30;38.60
42227;DHT22;27892;52.378;13.122;2023-06-05T06:02:41;21.80;37.90
42227;DHT22;27892;52.378;13.122;2023-06-05T06:05:08;22.40;37.00
42227;DHT22;27892;52.378;13.122;2023-06-05T06:07:35;23.20;34.80
42227;DHT22;27892;52.378;13.122;2023-06-05T06:10:01;24.90;34.20
42227;DHT22;27892;52.378;13.122;2023-06-05T06:12:27;26.60;31.10
42227;DHT22;27892;52.378;13.122;2023-06-05T06:14:56;27.80;29.40
42227;DHT22;27892;52.378;13.122;2023-06-05T06:17:22;28.40;28.00
42227;DHT22;27892;52.378;13.122;2023-06-05T06:19:48;29.10;27.90
42227;DHT22;27892;52.378;13.122;2023-06-05T06:22:14;29.80;27.60
42227;DHT22;27892;52.378;13.122;2023-06-05T06:24:41;31.00;26.80
42227;DHT22;27892;52.378;13.122;2023-06-05T06:27:10;31.90;25.70
42227;DHT22;27892;52.378;13.122;2023-06-05T06:29:45;32.10;24.50
42227;DHT22;27892;52.378;13.122;2023-06-05T06:32:11;32.50;25.00
42227;DHT22;27892;52.378;13.122;2023-06-05T06:34:37;33.40;24.30
42227;DHT22;27892;52.378;13.122;2023-06-05T06:37:03;33.60;22.00
42227;DHT22;27892;52.378;13.122;2023-06-05T06:39:29;33.90;22.50
42227;DHT22;27892;52.378;13.122;2023-06-05T06:41:54;34.20;22.40
42227;DHT22;27892;52.378;13.122;2023-06-05T06:44:21;34.50;21.20
42227;DHT22;27892;52.378;13.122;2023-06-05T06:46:47;34.30;21.60
42227;DHT22;27892;52.378;13.122;2023-06-05T06:49:13;34.60;22.30
42227;DHT22;27892;52.378;13.122;2023-06-05T06:51:38;35.40;21.60
42227;DHT22;27892;52.378;13.122;2023-06-05T06:54:04;36.10;21.20
42227;DHT22;27892;52.378;13.122;2023-06-05T06:56:30;36.50;21.00
42227;DHT22;27892;52.378;13.122;2023-06-05T06:58:55;37.20;20.40
42227;DHT22;27892;52.378;13.122;2023-06-05T07:01:21;37.70;19.90
42227;DHT22;27892;52.378;13.122;2023-06-05T07:03:47;38.30;18.90
42227;DHT22;27892;52.378;13.122;2023-06-05T07:06:13;38.10;19.30
42227;DHT22;27892;52.378;13.122;2023-06-05T07:08:40;37.90;19.10
42227;DHT22;27892;52.378;13.122;2023-06-05T07:11:06;38.10;18.70
42227;DHT22;27892;52.378;13.122;2023-06-05T07:13:31;38.30;18.60
42227;DHT22;27892;52.378;13.122;2023-06-05T07:15:57;38.20;18.50
42227;DHT22;27892;52.378;13.122;2023-06-05T07:18:23;38.10;18.10
42227;DHT22;27892;52.378;13.122;2023-06-05T07:20:48;37.80;17.90
42227;DHT22;27892;52.378;13.122;2023-06-05T07:23:17;37.90;18.20
42227;DHT22;27892;52.378;13.122;2023-06-05T07:25:44;37.20;18.20
42227;DHT22;27892;52.378;13.122;2023-06-05T07:28:10;37.20;18.50
42227;DHT22;27892;52.378;13.122;2023-06-05T07:30:40;36.70;17.90
42227;DHT22;27892;52.378;13.122;2023-06-05T07:33:08;36.00;18.50
42227;DHT22;27892;52.378;13.122;2023-06-05T07:35:35;35.70;17.50
42227;DHT22;27892;52.378;13.122;2023-06-05T07:38:01;35.70;18.10
42227;DHT22;27892;52.378;13.122;2023-06-05T07:40:26;35.80;18.80
42227;DHT22;27892;52.378;13.122;2023-06-05T07:42:52;35.10;19.20
42227;DHT22;27892;52.378;13.122;2023-06-05T07:45:17;34.30;19.70
42227;DHT22;27892;52.378;13.122;2023-06-05T07:47:43;33.90;20.50
42227;DHT22;27892;52.378;13.122;2023-06-05T07:50:09;33.30;19.80
42227;DHT22;27892;52.378;13.122;2023-06-05T07:52:36;32.80;20.30
42227;DHT22;27892;52.378;13.122;2023-06-05T07:55:02;32.40;20.70
42227;DHT22;27892;52.378;13.122;2023-06-05T07:57:29;32.40;20.80
42227;DHT22;27892;52.378;13.122;2023-06-05T07:59:54;32.20;21.30
42227;DHT22;27892;52.378;13.122;2023-06-05T08:02:20;32.10;21.00
42227;DHT22;27892;52.378;13.122;2023-06-05T08:04:46;32.10;21.20
42227;DHT22;27892;52.378;13.122;2023-06-05T08:07:12;32.20;21.40
42227;DHT22;27892;52.378;13.122;2023-06-05T08:09:38;32.20;20.50
42227;DHT22;27892;52.378;13.122;2023-06-05T08:12:04;32.20;20.90
42227;DHT22;27892;52.378;13.122;2023-06-05T08:14:31;32.00;19.70
42227;DHT22;27892;52.378;13.122;2023-06-05T08:16:57;31.20;20.10
42227;DHT22;27892;52.378;13.122;2023-06-05T08:19:23;31.00;20.50
42227;DHT22;27892;52.378;13.122;2023-06-05T08:21:53;31.30;21.00
42227;DHT22;27892;52.378;13.122;2023-06-05T08:24:22;31.40;20.30
42227;DHT22;27892;52.378;13.122;2023-06-05T08:26:48;30.70;19.90
42227;DHT22;27892;52.378;13.122;2023-06-05T08:29:14;30.80;20.90
42227;DHT22;27892;52.378;13.122;2023-06-05T08:31:40;31.00;20.50
42227;DHT22;27892;52.378;13.122;2023-06-05T08:34:06;30.80;20.50
42227;DHT22;27892;52.378;13.122;2023-06-05T08:36:31;31.10;20.70
42227;DHT22;27892;52.378;13.122;2023-06-05T08:38:58;31.30;21.00
42227;DHT22;27892;52.378;13.122;2023-06-05T08:41:25;31.60;21.10
42227;DHT22;27892;52.378;13.122;2023-06-05T08:43:51;31.10;20.20
42227;DHT22;27892;52.378;13.122;2023-06-05T08:46:17;30.50;21.10
42227;DHT22;27892;52.378;13.122;2023-06-05T08:48:47;30.30;20.80
42227;DHT22;27892;52.378;13.122;2023-06-05T08:51:15;30.60;21.30
42227;DHT22;27892;52.378;13.122;2023-06-05T08:53:45;30.20;20.50
42227;DHT22;27892;52.378;13.122;2023-06-05T08:56:13;30.20;20.90
42227;DHT22;27892;52.378;13.122;2023-06-05T08:58:39;30.30;20.90
42227;DHT22;27892;52.378;13.122;2023-06-05T09:01:09;30.30;20.60
42227;DHT22;27892;52.378;13.122;2023-06-05T09:03:34;30.50;20.80
42227;DHT22;27892;52.378;13.122;2023-06-05T09:06:00;30.80;21.00
42227;DHT22;27892;52.378;13.122;2023-06-05T09:08:33;31.20;21.00
42227;DHT22;27892;52.378;13.122;2023-06-05T09:13:47;30.90;19.70
42227;DHT22;27892;52.378;13.122;2023-06-05T09:16:12;31.00;20.40
42227;DHT22;27892;52.378;13.122;2023-06-05T09:18:58;31.20;20.30
42227;DHT22;27892;52.378;13.122;2023-06-05T09:21:25;31.20;19.80
42227;DHT22;27892;52.378;13.122;2023-06-05T09:24:11;31.10;19.70
42227;DHT22;27892;52.378;13.122;2023-06-05T09:27:02;31.50;19.90
42227;DHT22;27892;52.378;13.122;2023-06-05T09:29:32;31.60;19.90
42227;DHT22;27892;52.378;13.122;2023-06-05T09:32:03;31.40;19.50
42227;DHT22;27892;52.378;13.122;2023-06-05T09:34:34;31.20;19.70
42227;DHT22;27892;52.378;13.122;2023-06-05T09:37:03;31.00;19.60
42227;DHT22;27892;52.378;13.122;2023-06-05T09:39:30;31.20;20.00
42227;DHT22;27892;52.378;13.122;2023-06-05T09:41:58;31.50;21.10
42227;DHT22;27892;52.378;13.122;2023-06-05T09:44:25;31.70;20.10
42227;DHT22;27892;52.378;13.122;2023-06-05T09:50:05;31.80;19.80
42227;DHT22;27892;52.378;13.122;2023-06-05T09:52:08;32.00;20.30
42227;DHT22;27892;52.378;13.122;2023-06-05T09:54:36;32.20;19.50
42227;DHT22;27892;52.378;13.122;2023-06-05T09:57:04;32.40;20.20
42227;DHT22;27892;52.378;13.122;2023-06-05T09:59:32;32.70;20.10
42227;DHT22;27892;52.378;13.122;2023-06-05T10:02:05;32.40;19.30
42227;DHT22;27892;52.378;13.122;2023-06-05T10:04:46;32.50;19.50
42227;DHT22;27892;52.378;13.122;2023-06-05T10:07:12;32.30;19.90
42227;DHT22;27892;52.378;13.122;2023-06-05T10:09:38;32.30;20.10
42227;DHT22;27892;52.378;13.122;2023-06-05T10:12:06;32.50;20.30
42227;DHT22;27892;52.378;13.122;2023-06-05T10:14:40;32.40;18.70
42227;DHT22;27892;52.378;13.122;2023-06-05T10:17:07;32.10;19.00
42227;DHT22;27892;52.378;13.122;2023-06-05T10:19:32;32.10;19.30
42227;DHT22;27892;52.378;13.122;2023-06-05T10:21:58;32.10;19.10
42227;DHT22;27892;52.378;13.122;2023-06-05T10:24:31;31.90;19.30
42227;DHT22;27892;52.378;13.122;2023-06-05T10:32:58;32.30;19.60
42227;DHT22;27892;52.378;13.122;2023-06-05T10:35:40;32.40;19.30
42227;DHT22;27892;52.378;13.122;2023-06-05T10:38:21;32.30;18.80
42227;DHT22;27892;52.378;13.122;2023-06-05T10:41:07;31.90;19.00
42227;DHT22;27892;52.378;13.122;2023-06-05T10:43:46;32.20;19.20
42227;DHT22;27892;52.378;13.122;2023-06-05T10:46:39;32.10;18.50
42227;DHT22;27892;52.378;13.122;2023-06-05T10:49:09;31.60;18.20
42227;DHT22;27892;52.378;13.122;2023-06-05T10:51:43;31.70;19.40
42227;DHT22;27892;52.378;13.122;2023-06-05T10:54:11;31.70;19.50
42227;DHT22;27892;52.378;13.122;2023-06-05T10:56:56;31.90;18.60
42227;DHT22;27892;52.378;13.122;2023-06-05T10:59:24;32.20;18.70
42227;DHT22;27892;52.378;13.122;2023-06-05T11:07:20;32.70;19.20
42227;DHT22;27892;52.378;13.122;2023-06-05T11:18:25;33.60;20.10
42227;DHT22;27892;52.378;13.122;2023-06-05T11:20:52;34.00;19.20
42227;DHT22;27892;52.378;13.122;2023-06-05T11:23:18;33.40;17.70
42227;DHT22;27892;52.378;13.122;2023-06-05T11:25:43;32.00;18.10
42227;DHT22;27892;52.378;13.122;2023-06-05T11:28:10;31.60;18.50
42227;DHT22;27892;52.378;13.122;2023-06-05T11:30:43;31.50;18.90
42227;DHT22;27892;52.378;13.122;2023-06-05T11:33:13;31.90;19.30
42227;DHT22;27892;52.378;13.122;2023-06-05T11:35:47;32.40;18.90
42227;DHT22;27892;52.378;13.122;2023-06-05T11:38:18;32.60;17.80
42227;DHT22;27892;52.378;13.122;2023-06-05T11:40:44;32.30;18.40
42227;DHT22;27892;52.378;13.122;2023-06-05T11:43:12;32.40;18.80
42227;DHT22;27892;52.378;13.122;2023-06-05T11:45:39;32.60;18.50
42227;DHT22;27892;52.378;13.122;2023-06-05T11:48:09;32.80;19.00
42227;DHT22;27892;52.378;13.122;2023-06-05T11:50:35;33.10;18.80
42227;DHT22;27892;52.378;13.122;2023-06-05T11:53:09;33.10;18.50
42227;DHT22;27892;52.378;13.122;2023-06-05T11:55:35;33.10;19.00
42227;DHT22;27892;52.378;13.122;2023-06-05T11:58:28;32.90;18.80
42227;DHT22;27892;52.378;13.122;2023-06-05T12:01:24;32.90;19.20
42227;DHT22;27892;52.378;13.122;2023-06-05T12:04:06;33.20;18.60
42227;DHT22;27892;52.378;13.122;2023-06-05T12:06:32;33.40;18.00
42227;DHT22;27892;52.378;13.122;2023-06-05T12:09:09;33.00;18.00
42227;DHT22;27892;52.378;13.122;2023-06-05T12:11:35;33.00;18.80
42227;DHT22;27892;52.378;13.122;2023-06-05T12:14:01;33.30;19.30
42227;DHT22;27892;52.378;13.122;2023-06-05T12:18:57;33.70;18.50
42227;DHT22;27892;52.378;13.122;2023-06-05T12:21:24;33.80;18.50
42227;DHT22;27892;52.378;13.122;2023-06-05T12:23:51;33.80;18.00
42227;DHT22;27892;52.378;13.122;2023-06-05T12:26:17;33.90;18.80
42227;DHT22;27892;52.378;13.122;2023-06-05T12:28:44;33.80;17.80
42227;DHT22;27892;52.378;13.122;2023-06-05T12:31:32;33.60;17.80
42227;DHT22;27892;52.378;13.122;2023-06-05T12:33:59;33.50;17.20
42227;DHT22;27892;52.378;13.122;2023-06-05T12:36:24;33.10;17.90
42227;DHT22;27892;52.378;13.122;2023-06-05T12:38:50;33.20;18.10
42227;DHT22;27892;52.378;13.122;2023-06-05T12:41:16;33.10;17.70
42227;DHT22;27892;52.378;13.122;2023-06-05T12:43:41;33.00;17.70
42227;DHT22;27892;52.378;13.122;2023-06-05T12:46:07;33.20;17.70
42227;DHT22;27892;52.378;13.122;2023-06-05T12:48:36;33.50;18.40
42227;DHT22;27892;52.378;13.122;2023-06-05T12:51:02;33.80;17.70
42227;DHT22;27892;52.378;13.122;2023-06-05T12:53:28;33.10;17.20
42227;DHT22;27892;52.378;13.122;2023-06-05T12:55:53;33.30;17.80
42227;DHT22;27892;52.378;13.122;2023-06-05T12:58:19;33.30;17.40
42227;DHT22;27892;52.378;13.122;2023-06-05T13:00:45;33.40;17.50
42227;DHT22;27892;52.378;13.122;2023-06-05T13:03:10;33.40;17.60
42227;DHT22;27892;52.378;13.122;2023-06-05T13:05:38;32.90;17.70
42227;DHT22;27892;52.378;13.122;2023-06-05T13:08:03;32.50;17.70
42227;DHT22;27892;52.378;13.122;2023-06-05T13:10:29;32.20;17.80
42227;DHT22;27892;52.378;13.122;2023-06-05T13:12:55;32.10;17.80
42227;DHT22;27892;52.378;13.122;2023-06-05T13:15:20;32.40;18.20
42227;DHT22;27892;52.378;13.122;2023-06-05T13:17:46;32.70;18.20
42227;DHT22;27892;52.378;13.122;2023-06-05T13:20:13;32.90;18.10
42227;DHT22;27892;52.378;13.122;2023-06-05T13:22:39;32.90;18.20
42227;DHT22;27892;52.378;13.122;2023-06-05T13:25:06;32.40;17.60
42227;DHT22;27892;52.378;13.122;2023-06-05T13:27:33;32.20;17.90
42227;DHT22;27892;52.378;13.122;2023-06-05T13:29:58;32.60;18.20
42227;DHT22;27892;52.378;13.122;2023-06-05T13:32:24;33.00;18.00
42227;DHT22;27892;52.378;13.122;2023-06-05T13:34:50;33.40;18.30
42227;DHT22;27892;52.378;13.122;2023-06-05T13:37:16;33.80;17.70
42227;DHT22;27892;52.378;13.122;2023-06-05T13:39:42;34.10;17.60
42227;DHT22;27892;52.378;13.122;2023-06-05T13:42:08;34.30;17.80
42227;DHT22;27892;52.378;13.122;2023-06-05T13:44:34;34.60;18.20
42227;DHT22;27892;52.378;13.122;2023-06-05T13:46:59;34.80;17.40
42227;DHT22;27892;52.378;13.122;2023-06-05T13:49:31;34.90;16.90
42227;DHT22;27892;52.378;13.122;2023-06-05T13:51:57;34.60;16.90
42227;DHT22;27892;52.378;13.122;2023-06-05T13:54:22;34.50;18.00
42227;DHT22;27892;52.378;13.122;2023-06-05T13:56:48;34.60;17.90
42227;DHT22;27892;52.378;13.122;2023-06-05T13:59:14;34.60;17.40
42227;DHT22;27892;52.378;13.122;2023-06-05T14:01:40;34.80;17.60
42227;DHT22;27892;52.378;13.122;2023-06-05T14:04:05;35.00;17.00
42227;DHT22;27892;52.378;13.122;2023-06-05T14:06:31;35.00;17.40
42227;DHT22;27892;52.378;13.122;2023-06-05T14:08:57;35.20;17.40
42227;DHT22;27892;52.378;13.122;2023-06-05T14:11:23;35.30;17.50
42227;DHT22;27892;52.378;13.122;2023-06-05T14:13:50;35.30;17.00
42227;DHT22;27892;52.378;13.122;2023-06-05T14:16:15;34.70;16.50
42227;DHT22;27892;52.378;13.122;2023-06-05T14:18:41;33.60;17.10
42227;DHT22;27892;52.378;13.122;2023-06-05T14:21:07;33.60;17.50
42227;DHT22;27892;52.378;13.122;2023-06-05T14:23:32;33.40;17.40
42227;DHT22;27892;52.378;13.122;2023-06-05T14:25:58;32.50;17.20
42227;DHT22;27892;52.378;13.122;2023-06-05T14:28:24;32.20;17.90
42227;DHT22;27892;52.378;13.122;2023-06-05T14:30:51;32.50;18.20
42227;DHT22;27892;52.378;13.122;2023-06-05T14:33:16;32.60;17.70
42227;DHT22;27892;52.378;13.122;2023-06-05T14:35:43;32.80;18.30
42227;DHT22;27892;52.378;13.122;2023-06-05T14:38:09;33.00;18.10
42227;DHT22;27892;52.378;13.122;2023-06-05T14:40:39;33.00;18.20
42227;DHT22;27892;52.378;13.122;2023-06-05T14:43:05;32.50;17.30
42227;DHT22;27892;52.378;13.122;2023-06-05T14:45:31;32.30;17.80
42227;DHT22;27892;52.378;13.122;2023-06-05T14:47:57;31.90;18.00
42227;DHT22;27892;52.378;13.122;2023-06-05T14:50:23;31.90;19.20
42227;DHT22;27892;52.378;13.122;2023-06-05T14:52:48;32.00;18.20
42227;DHT22;27892;52.378;13.122;2023-06-05T14:55:14;32.10;18.70
42227;DHT22;27892;52.378;13.122;2023-06-05T14:57:40;32.10;19.10
42227;DHT22;27892;52.378;13.122;2023-06-05T15:00:06;32.10;19.50
42227;DHT22;27892;52.378;13.122;2023-06-05T15:02:33;32.00;19.00
42227;DHT22;27892;52.378;13.122;2023-06-05T15:04:59;31.70;18.50
42227;DHT22;27892;52.378;13.122;2023-06-05T15:07:25;31.50;18.50
42227;DHT22;27892;52.378;13.122;2023-06-05T15:09:50;31.40;19.20
42227;DHT22;27892;52.378;13.122;2023-06-05T15:12:17;31.10;18.70
42227;DHT22;27892;52.378;13.122;2023-06-05T15:14:43;30.60;18.80
42227;DHT22;27892;52.378;13.122;2023-06-05T15:17:08;30.10;19.00
42227;DHT22;27892;52.378;13.122;2023-06-05T15:19:34;29.90;19.70
42227;DHT22;27892;52.378;13.122;2023-06-05T15:22:00;30.00;19.70
42227;DHT22;27892;52.378;13.122;2023-06-05T15:24:27;30.10;19.70
42227;DHT22;27892;52.378;13.122;2023-06-05T15:26:52;30.20;20.40
42227;DHT22;27892;52.378;13.122;2023-06-05T15:29:19;30.40;20.60
42227;DHT22;27892;52.378;13.122;2023-06-05T15:31:45;30.50;20.20
42227;DHT22;27892;52.378;13.122;2023-06-05T15:34:10;30.40;19.60
42227;DHT22;27892;52.378;13.122;2023-06-05T15:36:36;30.40;20.20
42227;DHT22;27892;52.378;13.122;2023-06-05T15:39:02;30.40;20.00
42227;DHT22;27892;52.378;13.122;2023-06-05T15:41:28;30.40;20.30
42227;DHT22;27892;52.378;13.122;2023-06-05T15:43:54;30.50;20.30
42227;DHT22;27892;52.378;13.122;2023-06-05T15:46:20;30.60;20.50
42227;DHT22;27892;52.378;13.122;2023-06-05T15:48:47;30.60;20.90